Dorton Branch, Kentucky
Current Conditions -  °F | °C
As of 1:35 PM on Thursday 30 Oct 2014 (Local Time) from K1A6 Reporting Station
Clear Clear  
Wind Chill: 56°   Ceiling: Unl
Heat Index: 56°   Visibility: 10mi
Dew Point: 38°   Wind: 0mph
Humidity: 51%   Direction: NA
Pressure: 30.08"   Gusts: NA
Location:  36.7417°N, 83.6911°W
Report Text: K1A6 301735Z AUTO 00000KT 10SM CLR 13/03 A3008 RMK AO2 T01310031
Loading
Personal Weather Stations






























Interactive Weather Map
Tropical Storm Tracking
New forecast layout! Learn more

10-Day Weather Forecast

Advertisements
Track Severe Weather on mobile